createdAt,value
2024-02-13T00:01:19.266Z,99706.44
2024-02-13T00:06:21.482Z,99695.91
2024-02-13T00:11:23.669Z,99687.22
2024-02-13T00:16:25.932Z,99693.00
2024-02-13T00:21:28.127Z,99685.59
2024-02-13T00:26:30.410Z,99672.78
2024-02-13T00:31:33.318Z,99692.78
2024-02-13T00:36:35.440Z,99699.56
2024-02-13T00:41:37.628Z,99698.72
2024-02-13T00:46:39.916Z,99687.59
2024-02-13T00:51:42.833Z,99670.69
2024-02-13T00:56:45.367Z,99704.75
2024-02-13T01:01:47.524Z,99681.00
2024-02-13T01:06:49.799Z,99682.81
2024-02-13T01:11:52.136Z,99689.59
2024-02-13T01:16:54.357Z,99673.78
2024-02-13T01:21:57.152Z,99688.38
2024-02-13T01:26:59.630Z,99700.66
2024-02-13T01:32:01.856Z,99710.03
2024-02-13T01:37:04.786Z,99702.44
2024-02-13T01:42:06.999Z,99714.03
2024-02-13T01:47:09.504Z,99710.06
2024-02-13T01:52:11.749Z,99718.94
2024-02-13T01:57:14.339Z,99720.97
2024-02-13T02:02:16.602Z,99722.19
2024-02-13T02:07:20.047Z,99688.31
2024-02-13T02:12:22.225Z,99714.09
2024-02-13T02:17:24.428Z,99725.16
2024-02-13T02:22:26.592Z,99722.41
2024-02-13T02:27:28.799Z,99732.19
2024-02-13T02:32:31.113Z,99717.19
2024-02-13T02:37:36.289Z,99718.75
2024-02-13T02:42:38.535Z,99734.09
2024-02-13T02:47:41.370Z,99740.66
2024-02-13T02:52:44.731Z,99726.50
2024-02-13T02:57:47.396Z,99742.53
2024-02-13T03:02:49.947Z,99747.94
2024-02-13T03:07:52.190Z,99760.16
2024-02-13T03:12:54.381Z,99753.47
2024-02-13T03:17:56.762Z,99741.69
2024-02-13T03:23:00.192Z,99759.34
2024-02-13T03:28:03.967Z,99743.66
2024-02-13T03:33:06.336Z,99759.06
2024-02-13T03:38:08.584Z,99757.31
2024-02-13T03:43:11.382Z,99765.00
2024-02-13T03:48:16.767Z,99768.88
2024-02-13T03:53:19.055Z,99765.66
2024-02-13T03:58:21.251Z,99780.78
2024-02-13T04:03:28.490Z,99768.56
2024-02-13T04:08:30.774Z,99788.03
2024-02-13T04:13:33.043Z,99797.66
2024-02-13T04:18:35.649Z,99787.44
2024-02-13T04:23:37.912Z,99781.31
2024-02-13T04:28:43.190Z,99796.16
2024-02-13T04:33:46.010Z,99800.00
2024-02-13T04:38:48.927Z,99792.41
2024-02-13T04:43:54.436Z,99805.63
2024-02-13T04:48:56.726Z,99817.03
2024-02-13T04:53:58.969Z,99821.22
2024-02-13T04:59:01.227Z,99841.22
2024-02-13T05:04:15.599Z,99828.16
2024-02-13T05:09:17.916Z,99841.06
2024-02-13T05:14:20.095Z,99851.50
2024-02-13T05:19:23.035Z,99857.44
2024-02-13T05:24:25.654Z,99846.78
2024-02-13T05:29:27.913Z,99834.63
2024-02-13T05:34:30.323Z,99876.94
2024-02-13T05:39:32.877Z,99874.22
2024-02-13T05:44:35.017Z,99879.78
2024-02-13T05:49:37.689Z,99891.75
2024-02-13T05:54:42.573Z,99893.50
2024-02-13T05:59:47.099Z,99906.03
2024-02-13T06:04:50.016Z,99920.50
2024-02-13T06:09:52.248Z,99896.75
2024-02-13T06:14:54.588Z,99918.38
2024-02-13T06:20:03.036Z,99925.19
2024-02-13T06:25:06.763Z,99949.91
2024-02-13T06:30:09.429Z,99941.97
2024-02-13T06:35:12.053Z,99950.28
2024-02-13T06:40:14.461Z,99974.94
2024-02-13T06:45:16.679Z,99960.00
2024-02-13T06:50:19.134Z,99955.22
2024-02-13T06:55:21.708Z,99961.47
2024-02-13T07:00:26.850Z,99983.66
2024-02-13T07:05:29.081Z,99983.84
2024-02-13T07:10:31.426Z,99983.38
2024-02-13T07:15:33.973Z,99974.72
2024-02-13T07:20:36.576Z,99982.91
2024-02-13T07:25:38.767Z,99971.69
2024-02-13T07:30:40.878Z,99978.28
2024-02-13T07:35:43.125Z,99979.81
2024-02-13T07:40:46.379Z,99981.78
2024-02-13T07:45:48.560Z,99982.19
2024-02-13T07:50:51.498Z,99982.59
2024-02-13T07:55:53.698Z,99972.44
2024-02-13T08:00:56.273Z,99998.84
2024-02-13T08:06:00.512Z,99988.22
2024-02-13T08:11:02.719Z,99991.91
2024-02-13T08:16:05.566Z,100011.59
2024-02-13T08:21:08.223Z,100002.13
2024-02-13T08:26:10.430Z,100002.59
2024-02-13T08:31:12.638Z,100016.28
2024-02-13T08:36:15.015Z,100016.50
2024-02-13T08:41:17.402Z,100019.22
2024-02-13T08:46:23.849Z,100015.94
2024-02-13T08:51:29.536Z,100014.91
2024-02-13T08:56:31.986Z,100011.22
2024-02-13T09:01:35.436Z,100028.22
2024-02-13T09:06:40.864Z,100029.22
2024-02-13T09:11:43.216Z,100018.88
2024-02-13T09:16:45.770Z,100037.22
2024-02-13T09:21:47.891Z,100019.41
2024-02-13T09:26:53.041Z,100017.84
2024-02-13T09:31:56.069Z,100005.50
2024-02-13T09:36:58.912Z,99998.69
2024-02-13T09:42:01.178Z,100009.47
2024-02-13T09:47:05.482Z,99972.16
2024-02-13T09:52:13.687Z,99987.59
2024-02-13T09:57:16.276Z,99982.59
2024-02-13T10:02:22.664Z,99985.06
2024-02-13T10:07:25.404Z,99980.75
2024-02-13T10:12:27.849Z,99971.03
2024-02-13T10:17:30.284Z,99960.25
2024-02-13T10:22:32.701Z,99962.31
2024-02-13T10:27:35.339Z,99968.06
2024-02-13T10:32:45.315Z,99958.38
2024-02-13T10:37:48.973Z,99939.38
2024-02-13T10:42:51.890Z,99950.03
2024-02-13T10:47:58.247Z,99937.25
2024-02-13T10:53:02.887Z,99943.28
2024-02-13T10:58:13.852Z,99901.63
2024-02-13T11:03:21.850Z,99918.00
2024-02-13T11:08:24.660Z,99902.25
2024-02-13T11:13:28.084Z,99923.69
2024-02-13T11:18:32.020Z,99916.41
2024-02-13T11:23:35.353Z,99916.66
2024-02-13T11:28:42.808Z,99931.44
2024-02-13T11:34:15.306Z,99918.94
2024-02-13T11:39:18.790Z,99908.81
2024-02-13T11:44:21.999Z,99892.91
2024-02-13T11:49:26.977Z,99905.09
2024-02-13T11:54:31.648Z,99886.75
2024-02-13T11:59:34.373Z,99870.25
2024-02-13T12:04:36.542Z,99871.22
2024-02-13T12:09:42.384Z,99875.38
2024-02-13T12:14:44.938Z,99856.34
2024-02-13T12:19:47.950Z,99842.47
2024-02-13T12:24:52.040Z,99850.50
2024-02-13T12:29:54.325Z,99836.03
2024-02-13T12:35:12.596Z,99850.75
2024-02-13T12:40:16.756Z,99834.72
2024-02-13T12:45:21.142Z,99844.97
2024-02-13T12:50:25.622Z,99837.59
2024-02-13T12:55:27.932Z,99827.53
2024-02-13T13:00:36.440Z,99836.34
2024-02-13T13:05:42.852Z,99833.22
2024-02-13T13:10:46.077Z,99824.88
2024-02-13T13:15:49.121Z,99830.50
2024-02-13T13:20:55.232Z,99845.22
2024-02-13T13:26:03.423Z,99842.53
2024-02-13T13:31:06.241Z,99830.75
2024-02-13T13:36:09.245Z,99855.31
2024-02-13T13:41:14.622Z,99847.53
2024-02-13T13:46:17.530Z,99847.75
2024-02-13T13:51:19.740Z,99838.28
2024-02-13T13:56:21.917Z,99836.44
2024-02-13T14:01:24.143Z,99822.34
2024-02-13T14:06:26.449Z,99817.81
2024-02-13T14:11:28.876Z,99833.72
2024-02-13T14:16:31.007Z,99837.59
2024-02-13T14:21:33.507Z,99831.31
2024-02-13T14:26:36.076Z,99834.59
2024-02-13T14:31:38.374Z,99847.97
2024-02-13T14:36:42.913Z,99852.91
2024-02-13T14:41:55.618Z,99854.47
2024-02-13T14:46:59.024Z,99834.66
2024-02-13T14:52:06.458Z,99854.75
2024-02-13T14:57:12.706Z,99872.25
2024-02-13T15:02:16.377Z,99864.41
2024-02-13T15:07:20.409Z,99872.91
2024-02-13T15:12:25.661Z,99888.34
2024-02-13T15:17:27.922Z,99867.84
2024-02-13T15:22:31.586Z,99891.06
2024-02-13T15:27:34.134Z,99866.59
2024-02-13T15:32:36.438Z,99893.94
2024-02-13T15:37:57.670Z,99895.22
2024-02-13T15:43:18.492Z,99895.84
2024-02-13T15:48:20.761Z,99901.69
2024-02-13T15:53:23.007Z,99898.69
2024-02-13T15:58:26.772Z,99912.19
2024-02-13T16:03:30.137Z,99919.13
2024-02-13T16:08:32.515Z,99930.94
2024-02-13T16:13:34.732Z,99925.44
2024-02-13T16:18:37.491Z,99944.03
2024-02-13T16:23:41.437Z,99945.44
2024-02-13T16:28:43.782Z,99961.69
2024-02-13T16:33:46.031Z,99968.38
2024-02-13T16:38:48.697Z,99963.78
2024-02-13T16:43:51.111Z,99977.47
2024-02-13T16:48:55.098Z,99994.25
2024-02-13T16:53:57.697Z,99991.19
2024-02-13T16:58:59.886Z,99988.47
2024-02-13T17:04:02.600Z,99999.22
2024-02-13T17:09:05.155Z,99993.09
2024-02-13T17:14:08.117Z,100036.63
2024-02-13T17:19:15.259Z,100028.06
2024-02-13T17:24:18.492Z,100033.00
2024-02-13T17:29:22.018Z,100016.25
2024-02-13T17:34:25.829Z,100057.69
2024-02-13T17:39:28.282Z,100049.31
2024-02-13T17:44:31.027Z,100042.25
2024-02-13T17:49:33.334Z,100042.97
2024-02-13T17:54:35.493Z,100061.53
2024-02-13T17:59:38.024Z,100045.53
2024-02-13T18:04:40.236Z,100067.59
2024-02-13T18:09:42.337Z,100063.41
2024-02-13T18:14:44.497Z,100081.22
2024-02-13T18:19:46.748Z,100083.88
2024-02-13T18:24:49.897Z,100081.09
2024-02-13T18:29:54.016Z,100077.63
2024-02-13T18:34:56.240Z,100088.31
2024-02-13T18:39:58.766Z,100087.13
2024-02-13T18:45:01.178Z,100082.25
2024-02-13T18:50:03.826Z,100100.81
2024-02-13T18:55:10.984Z,100120.88
2024-02-13T19:00:13.606Z,100108.78
2024-02-13T19:05:15.994Z,100119.22
2024-02-13T19:10:20.348Z,100088.59
2024-02-13T19:15:23.341Z,100133.09
2024-02-13T19:20:25.658Z,100102.72
2024-02-13T19:25:29.112Z,100131.94
2024-02-13T19:30:31.327Z,100129.25
2024-02-13T19:35:33.632Z,100126.56
2024-02-13T19:40:35.834Z,100132.78
2024-02-13T19:45:42.383Z,100139.03
2024-02-13T19:50:44.579Z,100148.56
2024-02-13T19:55:46.764Z,100144.41
2024-02-13T20:00:49.079Z,100143.19
2024-02-13T20:05:54.434Z,100148.38
2024-02-13T20:10:58.799Z,100149.84
2024-02-13T20:16:00.971Z,100150.44
2024-02-13T20:21:05.334Z,100152.53
2024-02-13T20:26:07.494Z,100138.03
2024-02-13T20:31:09.667Z,100133.91
2024-02-13T20:36:11.878Z,100143.63
2024-02-13T20:41:14.528Z,100133.47
2024-02-13T20:46:20.027Z,100155.22
2024-02-13T20:51:22.179Z,100145.50
2024-02-13T20:56:24.572Z,100163.06
2024-02-13T21:01:36.800Z,100166.41
2024-02-13T21:06:42.397Z,100181.91
2024-02-13T21:11:46.906Z,100166.38
2024-02-13T21:16:49.287Z,100197.19
2024-02-13T21:22:09.820Z,100182.94
2024-02-13T21:27:12.141Z,100193.06
2024-02-13T21:32:15.654Z,100187.66
2024-02-13T21:37:17.949Z,100202.53
2024-02-13T21:42:20.047Z,100192.75
2024-02-13T21:47:22.276Z,100193.88
2024-02-13T21:52:25.243Z,100195.28
2024-02-13T21:57:27.495Z,100208.50
2024-02-13T22:02:32.770Z,100211.38
2024-02-13T22:07:39.064Z,100214.06
2024-02-13T22:12:44.352Z,100198.09
2024-02-13T22:17:48.704Z,100195.59
2024-02-13T22:22:50.908Z,100213.75
2024-02-13T22:27:54.468Z,100216.03
2024-02-13T22:32:57.126Z,100212.13
2024-02-13T22:37:59.625Z,100208.78
2024-02-13T22:43:02.593Z,100201.63
2024-02-13T22:48:05.337Z,100173.63
2024-02-13T22:53:10.009Z,100208.25
2024-02-13T22:58:12.147Z,100203.78
2024-02-13T23:03:14.743Z,100185.31
2024-02-13T23:08:17.392Z,100218.19
2024-02-13T23:13:25.863Z,100217.34
2024-02-13T23:18:30.988Z,100197.06
2024-02-13T23:23:36.721Z,100204.56
2024-02-13T23:28:48.808Z,100217.97
2024-02-13T23:33:58.580Z,100230.31
2024-02-13T23:39:01.094Z,100220.94
2024-02-13T23:44:04.402Z,100214.50
2024-02-13T23:49:06.662Z,100248.63
2024-02-13T23:54:09.229Z,100251.88
2024-02-13T23:59:12.528Z,100240.63
